Time;durP1;ratioP1;P1;durP2;ratioP2;P2;SDS_P1;SDS_P2;PMS_P1;PMS_P2;Temp;Humidity;BMP_temperature;BMP_pressure;BME280_temperature;BME280_humidity;BME280_pressure;Samples;Min_cycle;Max_cycle;Signal;HPM_P1;HPM_P2
2022/08/01 00:00:25;;;;;;;;;1.00;1.00;;;;;25.75;46.47;101372.16;5038460;28;52507;-57
2022/08/01 00:02:51;;;;;;;;;0.50;0.50;;;;;25.75;46.53;101368.63;5039040;28;45469;-57
2022/08/01 00:05:16;;;;;;;;;2.00;1.75;;;;;25.76;46.72;101378.31;5038174;28;45416;-57
2022/08/01 00:07:42;;;;;;;;;1.00;1.00;;;;;25.75;46.95;101371.28;5038478;28;45240;-56
2022/08/01 00:10:11;;;;;;;;;2.00;1.25;;;;;25.76;46.43;101378.31;5038124;28;45368;-56
2022/08/01 00:12:37;;;;;;;;;1.50;1.50;;;;;25.75;46.76;101379.25;5038623;28;45331;-56
2022/08/01 00:15:05;;;;;;;;;1.00;1.00;;;;;25.74;46.43;101374.94;5038013;28;45702;-56
2022/08/01 00:17:30;;;;;;;;;0.25;0.25;;;;;25.74;46.78;101380.25;5038111;28;45779;-56
2022/08/01 00:19:56;;;;;;;;;1.00;1.00;;;;;25.73;46.76;101378.53;5038152;28;45246;-56
2022/08/01 00:22:21;;;;;;;;;1.00;1.00;;;;;25.73;46.86;101373.22;5038805;28;45252;-56
2022/08/01 00:24:46;;;;;;;;;1.00;1.00;;;;;25.71;46.58;101369.81;5038043;28;45503;-56
2022/08/01 00:27:12;;;;;;;;;1.75;1.75;;;;;25.71;46.76;101367.16;5037888;28;45312;-56
2022/08/01 00:29:37;;;;;;;;;1.00;1.00;;;;;25.69;46.96;101364.59;5038157;28;45334;-56
2022/08/01 00:32:02;;;;;;;;;1.75;0.75;;;;;25.67;46.80;101363.88;5038102;28;45593;-56
2022/08/01 00:34:28;;;;;;;;;0.25;0.00;;;;;25.68;47.14;101359.41;5037863;28;45608;-57
2022/08/01 00:36:53;;;;;;;;;1.00;1.00;;;;;25.68;46.54;101354.09;5036441;28;58631;-57
2022/08/01 00:39:18;;;;;;;;;1.00;1.00;;;;;25.66;47.08;101348.91;5037621;28;45568;-56
2022/08/01 00:41:44;;;;;;;;;1.00;1.00;;;;;25.67;46.87;101355.91;5038255;28;45382;-56
2022/08/01 00:44:09;;;;;;;;;0.50;0.50;;;;;25.68;46.69;101354.09;5037457;28;46507;-56
2022/08/01 00:46:34;;;;;;;;;1.00;1.00;;;;;25.68;46.96;101348.78;5037662;28;45366;-56
2022/08/01 00:49:00;;;;;;;;;1.00;1.00;;;;;25.68;46.59;101354.97;5037741;28;45324;-56
2022/08/01 00:51:26;;;;;;;;;1.75;1.00;;;;;25.66;46.90;101340.94;5038240;28;45718;-55
2022/08/01 00:53:52;;;;;;;;;1.00;1.00;;;;;25.65;46.46;101344.56;5037864;28;46815;-55
2022/08/01 00:56:24;;;;;;;;;1.25;1.00;;;;;25.64;47.12;101348.16;5037396;28;45296;-56
2022/08/01 00:58:49;;;;;;;;;2.00;1.00;;;;;25.66;47.12;101345.38;5036533;28;45425;-56
2022/08/01 01:01:15;;;;;;;;;1.00;0.50;;;;;25.65;46.56;101341.91;5037707;28;45752;-56
2022/08/01 01:03:40;;;;;;;;;0.50;0.50;;;;;25.64;46.56;101342.84;5037581;28;46178;-56
2022/08/01 01:06:50;;;;;;;;;1.50;1.00;;;;;25.62;46.86;101342.97;5037417;28;45430;-56
2022/08/01 01:09:52;;;;;;;;;1.50;1.50;;;;;25.60;46.58;101344.88;5015014;28;45374;-57
2022/08/01 01:12:34;;;;;;;;;0.00;0.00;;;;;25.59;46.84;101345.81;5036082;28;45297;-56
2022/08/01 01:15:22;;;;;;;;;1.00;1.00;;;;;25.58;46.62;101344.13;5037142;28;47262;-57
2022/08/01 01:17:57;;;;;;;;;1.00;0.00;;;;;25.56;46.75;101340.72;5036081;28;45979;-56
2022/08/01 01:20:30;;;;;;;;;1.00;1.00;;;;;25.56;46.48;101337.22;5037741;28;45320;-57
2022/08/01 01:23:33;;;;;;;;;1.00;1.00;;;;;25.58;46.40;101337.94;5037915;28;45793;-56
2022/08/01 01:26:25;;;;;;;;;2.00;0.25;;;;;25.58;46.72;101337.94;5027423;28;45404;-56
2022/08/01 01:29:02;;;;;;;;;0.00;0.00;;;;;25.55;46.66;101338.19;5037679;28;45334;-56
2022/08/01 01:31:30;;;;;;;;;2.00;1.00;;;;;25.54;46.58;101339.13;5037196;28;45351;-56
2022/08/01 01:33:59;;;;;;;;;0.25;0.25;;;;;25.55;46.96;101338.19;5037191;28;45502;-56
2022/08/01 01:36:26;;;;;;;;;0.25;0.25;;;;;25.54;46.79;101342.63;5037201;28;46309;-56
2022/08/01 01:38:54;;;;;;;;;0.50;0.50;;;;;25.52;46.75;101339.22;5037425;28;45177;-55
2022/08/01 01:41:21;;;;;;;;;0.75;0.75;;;;;25.52;46.54;101341.88;5036727;28;45268;-56
2022/08/01 01:43:48;;;;;;;;;0.75;0.00;;;;;25.50;46.58;101346.47;5037240;28;45624;-56
2022/08/01 01:46:18;;;;;;;;;0.50;0.25;;;;;25.50;47.12;101335.84;5036544;28;46549;-56
2022/08/01 01:48:46;;;;;;;;;0.00;0.00;;;;;25.49;46.92;101336.81;5036865;28;45368;-56
2022/08/01 01:51:14;;;;;;;;;0.00;0.00;;;;;25.49;46.90;101344.75;5036637;28;45390;-56
2022/08/01 01:53:41;;;;;;;;;3.75;0.75;;;;;25.49;46.69;101334.16;5037148;28;45234;-56
2022/08/01 01:56:08;;;;;;;;;1.00;1.00;;;;;25.49;47.18;101333.28;5036381;28;45379;-56
2022/08/01 01:58:36;;;;;;;;;1.00;1.00;;;;;25.47;46.75;101336.88;5036653;28;45779;-56
2022/08/01 02:01:03;;;;;;;;;0.00;0.00;;;;;25.49;47.04;101338.59;5036556;28;45413;-56
2022/08/01 02:03:30;;;;;;;;;0.75;0.75;;;;;25.47;46.84;101326.28;5037077;28;45260;-56
2022/08/01 02:05:57;;;;;;;;;1.00;1.00;;;;;25.47;46.85;101333.41;5036235;28;46341;-56
2022/08/01 02:08:24;;;;;;;;;1.25;0.50;;;;;25.47;46.69;101328.94;5036889;28;45481;-56
2022/08/01 02:13:38;;;;;;;;;1.00;1.00;;;;;25.47;46.65;101331.59;5037020;28;45363;-56
2022/08/01 02:16:05;;;;;;;;;0.25;0.25;;;;;25.47;46.63;101336.06;5035981;28;45342;-57
2022/08/01 02:18:32;;;;;;;;;1.00;1.00;;;;;25.48;46.77;101332.44;5036422;28;45631;-56
2022/08/01 02:21:00;;;;;;;;;1.00;1.00;;;;;25.47;47.29;101325.44;5035475;28;45350;-56
2022/08/01 02:23:31;;;;;;;;;0.25;0.25;;;;;25.46;46.77;101327.25;5037071;28;45686;-56
2022/08/01 02:26:00;;;;;;;;;2.00;1.00;;;;;25.44;47.16;101326.50;5036018;28;46292;-57
2022/08/01 02:28:30;;;;;;;;;0.00;0.00;;;;;25.43;46.71;101330.13;5036512;28;45823;-56
2022/08/01 02:31:02;;;;;;;;;1.00;1.00;;;;;25.43;47.10;101323.94;5036326;28;45488;-56
2022/08/01 02:33:52;;;;;;;;;0.00;0.00;;;;;25.43;47.40;101327.47;5036575;28;45343;-56
2022/08/01 02:36:19;;;;;;;;;1.75;0.75;;;;;25.42;47.24;101330.19;5024881;28;46575;-58
2022/08/01 02:38:46;;;;;;;;;1.00;1.00;;;;;25.42;47.15;101336.38;5036257;28;45379;-56
2022/08/01 02:41:16;;;;;;;;;0.75;0.00;;;;;25.40;47.32;101330.31;5035955;28;45440;-57
2022/08/01 02:43:48;;;;;;;;;1.00;1.00;;;;;25.41;47.13;101323.22;5036487;28;45268;-57
2022/08/01 02:46:19;;;;;;;;;1.00;1.00;;;;;25.39;47.71;101333.06;5035822;28;46380;-56
2022/08/01 02:48:47;;;;;;;;;1.00;1.00;;;;;25.39;47.31;101328.59;5035976;28;45409;-56
2022/08/01 02:51:15;;;;;;;;;2.00;0.50;;;;;25.41;47.06;101328.53;5035981;28;45403;-56
2022/08/01 02:53:43;;;;;;;;;1.00;1.00;;;;;25.40;47.75;101327.66;5036152;28;45485;-56
2022/08/01 02:56:10;;;;;;;;;2.00;0.50;;;;;25.40;47.38;101326.78;5035530;28;46818;-56
2022/08/01 02:58:37;;;;;;;;;1.00;1.00;;;;;25.39;47.51;101330.41;5036224;28;45782;-57
2022/08/01 03:01:05;;;;;;;;;1.00;1.00;;;;;25.39;47.59;101333.06;5035699;28;45326;-56
2022/08/01 03:03:32;;;;;;;;;1.25;1.25;;;;;25.37;47.59;101327.00;5034925;28;45279;-56
2022/08/01 03:05:58;;;;;;;;;1.00;1.00;;;;;25.36;47.26;101322.63;5035718;28;46831;-56
2022/08/01 03:08:24;;;;;;;;;1.75;1.75;;;;;25.36;47.95;101322.63;5035546;28;45517;-56
2022/08/01 03:10:53;;;;;;;;;2.00;1.00;;;;;25.35;47.36;101315.63;5035853;28;45337;-56
2022/08/01 03:13:21;;;;;;;;;0.50;0.50;;;;;25.34;47.65;101320.09;5036028;28;45621;-56
2022/08/01 03:15:48;;;;;;;;;1.00;1.00;;;;;25.35;47.84;101320.94;5035636;28;45315;-57
2022/08/01 03:18:15;;;;;;;;;1.00;1.00;;;;;25.36;47.52;101325.28;5035542;28;45700;-56
2022/08/01 03:20:42;;;;;;;;;1.25;1.00;;;;;25.34;47.40;101319.25;5035415;28;45411;-58
2022/08/01 03:23:11;;;;;;;;;1.50;1.00;;;;;25.33;48.05;101323.72;5035786;28;45563;-57
2022/08/01 03:25:40;;;;;;;;;1.00;1.00;;;;;25.34;47.74;101329.84;5035216;28;45452;-57
2022/08/01 03:28:07;;;;;;;;;0.00;0.00;;;;;25.32;47.89;101327.31;5035519;28;46251;-57
2022/08/01 03:30:36;;;;;;;;;1.00;1.00;;;;;25.32;48.02;101325.50;5035332;28;45287;-57
2022/08/01 03:33:01;;;;;;;;;1.00;1.00;;;;;25.31;47.81;101336.22;5037705;28;45311;-57
2022/08/01 03:35:33;;;;;;;;;1.00;1.00;;;;;25.30;47.43;101330.06;5038472;28;46793;-57
2022/08/01 03:38:00;;;;;;;;;1.00;1.00;;;;;25.28;47.50;101331.97;5039073;28;45711;-57
2022/08/01 03:40:36;;;;;;;;;1.25;1.00;;;;;25.29;47.56;101336.34;5038785;28;45346;-57
2022/08/01 03:43:06;;;;;;;;;2.00;1.25;;;;;25.28;48.07;101341.72;5039246;28;45307;-57
2022/08/01 03:45:36;;;;;;;;;3.00;1.00;;;;;25.28;47.70;101336.44;5038419;28;46733;-57
2022/08/01 03:48:13;;;;;;;;;1.00;1.00;;;;;25.27;47.83;101340.91;5037412;28;45637;-57
2022/08/01 03:50:42;;;;;;;;;1.00;1.00;;;;;25.27;48.00;101332.06;5038666;28;45425;-57
2022/08/01 03:53:10;;;;;;;;;1.00;1.00;;;;;25.25;47.76;101334.84;5054366;28;45250;-58
2022/08/01 03:55:39;;;;;;;;;1.25;1.25;;;;;25.26;48.33;101341.84;5038186;28;46440;-57
2022/08/01 03:58:06;;;;;;;;;1.25;1.25;;;;;25.26;48.21;101341.84;5038512;28;45344;-57
2022/08/01 04:00:32;;;;;;;;;1.75;1.75;;;;;25.26;48.27;101335.69;5038427;28;45450;-57
2022/08/01 04:02:58;;;;;;;;;1.50;0.50;;;;;25.26;48.45;101338.31;5038920;28;45411;-57
2022/08/01 04:05:24;;;;;;;;;1.00;1.00;;;;;25.27;47.97;101334.72;5038439;28;46606;-57
2022/08/01 04:07:55;;;;;;;;;1.00;1.00;;;;;25.27;47.94;101324.97;5038373;28;45286;-57
2022/08/01 04:10:23;;;;;;;;;1.00;1.00;;;;;25.29;48.48;101327.50;5038102;28;45263;-56
2022/08/01 04:12:49;;;;;;;;;1.00;1.00;;;;;25.28;48.39;101331.97;5038660;28;45169;-57
2022/08/01 04:15:15;;;;;;;;;1.00;1.00;;;;;25.27;48.19;101321.47;5038156;28;45255;-58
2022/08/01 04:17:40;;;;;;;;;1.00;1.00;;;;;25.29;48.22;101323.06;5037910;28;45360;-57
2022/08/01 04:20:06;;;;;;;;;2.00;1.00;;;;;25.31;47.88;101318.50;5038318;28;45192;-57
2022/08/01 04:22:31;;;;;;;;;2.00;2.00;;;;;25.34;48.17;101319.25;5038216;28;45215;-58
2022/08/01 04:24:59;;;;;;;;;9.00;8.25;;;;;25.36;47.75;101320.81;5053520;28;47056;-58
2022/08/01 04:27:37;;;;;;;;;13.50;13.50;;;;;25.38;47.58;101316.25;5038009;28;45391;-58
2022/08/01 04:30:04;;;;;;;;;27.00;25.75;;;;;25.40;47.51;101319.69;5053470;28;45254;-58
2022/08/01 04:32:33;;;;;;;;;79.00;70.50;;;;;25.43;47.60;101311.53;5038063;28;45648;-57
2022/08/01 04:35:03;;;;;;;;;144.50;138.50;;;;;25.45;48.12;101306.13;5053255;28;47460;-57
2022/08/01 04:37:29;;;;;;;;;102.50;98.75;;;;;25.45;47.59;101303.47;5037475;28;45364;-58
2022/08/01 04:39:56;;;;;;;;;153.75;147.25;;;;;25.46;48.12;101308.69;5038184;28;45644;-58
2022/08/01 04:42:21;;;;;;;;;89.50;82.75;;;;;25.46;48.06;101308.69;5037962;28;45420;-58
2022/08/01 04:44:47;;;;;;;;;50.25;42.50;;;;;25.46;47.93;101314.00;5035875;28;46334;-58
2022/08/01 04:47:13;;;;;;;;;23.75;22.75;;;;;25.44;48.26;101310.59;5037711;28;45398;-62
2022/08/01 04:49:39;;;;;;;;;11.00;11.00;;;;;25.43;47.92;101318.63;5037523;28;45535;-57
2022/08/01 04:52:06;;;;;;;;;4.00;4.00;;;;;25.42;47.83;101316.94;5037986;28;45465;-57
2022/08/01 04:54:36;;;;;;;;;1.25;1.25;;;;;25.38;48.16;101321.56;5035948;28;48397;-57
2022/08/01 04:57:03;;;;;;;;;1.00;1.00;;;;;25.36;48.34;101318.16;5037623;28;45247;-56
2022/08/01 04:59:39;;;;;;;;;1.50;1.50;;;;;25.35;48.40;101321.81;5037413;28;45371;-57
2022/08/01 05:02:07;;;;;;;;;1.00;1.00;;;;;25.35;48.71;101320.94;5037738;28;45313;-57
2022/08/01 05:04:32;;;;;;;;;1.00;1.00;;;;;25.33;48.55;101331.66;5037032;28;46090;-57
2022/08/01 05:06:58;;;;;;;;;1.00;1.00;;;;;25.34;48.77;101332.50;5037432;28;45190;-57
2022/08/01 05:09:23;;;;;;;;;1.00;1.00;;;;;25.32;48.48;101336.09;5037541;28;45362;-57
2022/08/01 05:11:48;;;;;;;;;0.50;0.50;;;;;25.31;48.62;101337.06;5036366;28;45218;-58
2022/08/01 05:14:14;;;;;;;;;1.00;1.00;;;;;25.28;48.85;101339.94;5037333;28;46657;-58
2022/08/01 05:16:39;;;;;;;;;1.75;1.00;;;;;25.28;49.04;101341.72;5036953;28;45162;-58
2022/08/01 05:19:04;;;;;;;;;1.00;1.00;;;;;25.24;48.78;101343.75;5037470;28;45279;-58
2022/08/01 05:21:30;;;;;;;;;1.25;1.25;;;;;25.24;48.55;101348.22;5037345;28;45587;-57
2022/08/01 05:23:55;;;;;;;;;1.00;1.00;;;;;25.24;48.49;101350.88;5035964;28;46664;-57
2022/08/01 05:26:20;;;;;;;;;1.00;1.00;;;;;25.24;49.15;101353.53;5036500;28;52929;-57
2022/08/01 05:28:45;;;;;;;;;2.00;0.75;;;;;25.23;48.89;101350.00;5037299;28;45359;-57
2022/08/01 05:31:11;;;;;;;;;1.00;1.00;;;;;25.21;48.54;101345.75;5037328;28;45468;-56
2022/08/01 05:33:36;;;;;;;;;0.50;0.50;;;;;25.20;48.82;101354.66;5036782;28;45610;-56
2022/08/01 05:36:02;;;;;;;;;0.50;0.50;;;;;25.17;48.17;101345.13;5037027;28;45243;-57
2022/08/01 05:38:27;;;;;;;;;0.50;0.50;;;;;25.14;48.82;101340.84;5036894;28;45378;-57
2022/08/01 05:40:53;;;;;;;;;1.75;1.00;;;;;25.13;48.55;101348.94;5037563;28;45358;-58
2022/08/01 05:43:18;;;;;;;;;1.00;1.00;;;;;25.10;48.51;101343.81;5036864;28;45331;-57
2022/08/01 05:45:44;;;;;;;;;0.50;0.50;;;;;25.09;48.85;101344.75;5036157;28;45366;-57
2022/08/01 05:48:09;;;;;;;;;2.00;0.50;;;;;25.09;49.07;101347.41;5036956;28;45359;-57
2022/08/01 05:50:35;;;;;;;;;1.00;1.00;;;;;25.08;48.64;101351.88;5035485;28;45425;-57
2022/08/01 05:53:00;;;;;;;;;1.00;1.00;;;;;25.08;48.98;101359.84;5036427;28;51402;-57
2022/08/01 05:55:25;;;;;;;;;0.25;0.25;;;;;25.07;48.45;101354.66;5036111;28;45319;-57
2022/08/01 05:57:51;;;;;;;;;1.75;1.75;;;;;25.06;49.13;101356.44;5036487;28;45435;-58
2022/08/01 06:00:16;;;;;;;;;1.00;1.00;;;;;25.04;48.66;101355.69;5037035;28;45318;-57
2022/08/01 06:02:42;;;;;;;;;1.00;1.00;;;;;25.03;49.08;101353.16;5036133;28;46572;-57
2022/08/01 06:05:09;;;;;;;;;2.00;2.00;;;;;25.03;48.75;101361.09;5036677;28;45912;-57
2022/08/01 06:07:34;;;;;;;;;1.00;1.00;;;;;25.03;48.54;101358.44;5036244;28;45882;-58
2022/08/01 06:09:59;;;;;;;;;1.25;1.00;;;;;25.01;48.48;101362.06;5036642;28;45517;-58
2022/08/01 06:12:25;;;;;;;;;2.00;0.00;;;;;25.00;48.52;101365.66;5036389;28;47124;-57
2022/08/01 06:14:50;;;;;;;;;0.50;0.50;;;;;24.97;48.67;101360.53;5035774;28;59458;-57
2022/08/01 06:17:15;;;;;;;;;0.50;0.50;;;;;24.94;48.96;101360.78;5036547;28;45367;-57
2022/08/01 06:19:41;;;;;;;;;3.00;2.00;;;;;24.94;48.53;101360.78;5035019;28;45362;-58
2022/08/01 06:22:06;;;;;;;;;1.00;1.00;;;;;24.94;48.69;101351.94;5036128;28;46880;-57
2022/08/01 06:24:31;;;;;;;;;2.00;1.00;;;;;24.94;49.37;101359.91;5036083;28;45310;-58
2022/08/01 06:26:57;;;;;;;;;1.00;1.00;;;;;24.95;49.08;101361.59;5036744;28;45276;-57
2022/08/01 06:29:22;;;;;;;;;0.00;0.00;;;;;24.95;48.97;101364.25;5036310;28;45683;-56
2022/08/01 06:31:47;;;;;;;;;0.75;0.25;;;;;24.95;49.21;101366.91;5034347;28;56496;-57
2022/08/01 06:34:12;;;;;;;;;0.75;0.75;;;;;24.97;48.89;101371.16;5035922;28;48148;-57
2022/08/01 06:36:38;;;;;;;;;1.00;1.00;;;;;24.97;49.21;101365.00;5035924;28;45504;-57
2022/08/01 06:39:03;;;;;;;;;1.00;1.00;;;;;24.95;48.86;101365.13;5036429;28;45529;-57
2022/08/01 06:41:28;;;;;;;;;1.50;1.50;;;;;24.93;48.78;101361.72;5017616;28;46280;-57
2022/08/01 06:43:54;;;;;;;;;1.00;1.00;;;;;24.97;48.95;101365.84;5036062;28;52151;-57
2022/08/01 06:46:19;;;;;;;;;1.00;1.00;;;;;24.99;48.46;101363.13;5034593;28;45683;-50
2022/08/01 06:48:44;;;;;;;;;2.00;2.00;;;;;25.00;48.86;101363.00;5035208;28;45416;-46
2022/08/01 06:51:16;;;;;;;;;0.00;0.00;;;;;25.01;49.15;101367.34;5035359;28;46414;-47
2022/08/01 06:53:42;;;;;;;;;3.00;1.00;;;;;25.01;48.94;101362.06;5035478;28;45811;-49
2022/08/01 06:56:08;;;;;;;;;2.00;1.25;;;;;25.01;48.95;101367.34;5035822;28;45394;-46
2022/08/01 06:58:34;;;;;;;;;1.00;1.00;;;;;25.00;49.04;101360.34;5035685;28;45396;-51
2022/08/01 07:01:00;;;;;;;;;2.00;1.00;;;;;24.99;49.09;101363.13;5035495;28;46946;-48
2022/08/01 07:03:26;;;;;;;;;1.00;1.00;;;;;24.99;48.75;101363.94;5035367;28;45307;-47
2022/08/01 07:05:52;;;;;;;;;4.00;1.50;;;;;25.01;49.06;101359.41;5035646;28;45474;-47
2022/08/01 07:08:18;;;;;;;;;1.00;1.00;;;;;25.02;48.87;101360.25;5035477;28;45469;-48
2022/08/01 07:10:43;;;;;;;;;1.00;1.00;;;;;25.01;49.17;101359.41;5032593;28;46269;-50
2022/08/01 07:13:08;;;;;;;;;1.25;1.00;;;;;25.03;49.02;101363.75;5035117;28;47467;-50
2022/08/01 07:15:33;;;;;;;;;1.25;1.25;;;;;25.01;48.83;101367.34;5035376;28;45535;-49
2022/08/01 07:18:03;;;;;;;;;1.00;1.00;;;;;25.00;48.50;101368.31;5035969;28;45575;-53
2022/08/01 07:20:28;;;;;;;;;0.75;0.75;;;;;25.01;49.19;101362.06;5034797;28;47107;-54
2022/08/01 07:22:54;;;;;;;;;3.00;1.25;;;;;25.01;48.58;101364.69;5035299;28;45359;-56
2022/08/01 07:25:19;;;;;;;;;1.50;1.50;;;;;25.02;48.48;101362.91;5050810;28;45450;-57
2022/08/01 07:27:45;;;;;;;;;1.75;1.50;;;;;25.04;48.54;101365.47;5035655;28;45605;-57
2022/08/01 07:30:11;;;;;;;;;2.00;2.00;;;;;25.04;48.48;101368.09;5035077;28;45952;-56
2022/08/01 07:32:36;;;;;;;;;2.00;2.00;;;;;25.06;49.12;101374.16;5034415;28;45485;-57
2022/08/01 07:35:03;;;;;;;;;2.00;1.50;;;;;25.05;48.94;101369.81;5035263;28;45335;-57
2022/08/01 07:37:28;;;;;;;;;2.75;2.00;;;;;25.06;48.73;101369.69;5035456;28;45534;-57
2022/08/01 07:39:53;;;;;;;;;3.50;1.00;;;;;25.07;48.83;101370.56;5035243;28;47010;-54
2022/08/01 07:42:19;;;;;;;;;2.00;2.00;;;;;25.08;48.72;101377.56;5034625;28;45692;-57
2022/08/01 07:44:44;;;;;;;;;2.00;2.00;;;;;25.05;48.38;101370.66;5034995;28;45165;-54
2022/08/01 07:47:09;;;;;;;;;2.00;1.00;;;;;25.05;48.98;101377.75;5035141;28;45314;-60
2022/08/01 07:49:35;;;;;;;;;2.25;2.00;;;;;25.04;48.73;101381.38;5034732;28;45599;-56
2022/08/01 07:52:00;;;;;;;;;3.75;2.00;;;;;25.04;48.58;101392.81;5034560;28;45360;-58
2022/08/01 07:54:27;;;;;;;;;4.00;2.00;;;;;25.03;48.42;101398.22;5034994;28;45543;-59
2022/08/01 07:56:53;;;;;;;;;2.25;2.00;;;;;25.04;48.76;101399.94;5034017;28;45531;-59
2022/08/01 07:59:22;;;;;;;;;2.00;2.00;;;;;25.04;48.47;101392.81;5034940;28;45473;-57
2022/08/01 08:01:48;;;;;;;;;3.50;3.00;;;;;25.06;48.50;101396.22;5034458;28;46377;-55
2022/08/01 08:04:14;;;;;;;;;2.50;2.50;;;;;25.10;48.34;101402.16;5035056;28;45428;-57
2022/08/01 08:06:41;;;;;;;;;3.75;2.00;;;;;25.10;48.12;101384.47;5035187;28;45809;-58
2022/08/01 08:09:06;;;;;;;;;4.00;3.00;;;;;25.12;48.66;101394.97;5034714;28;46653;-57
2022/08/01 08:11:32;;;;;;;;;2.00;2.00;;;;;25.12;48.74;101395.84;5034414;28;45588;-59
2022/08/01 08:13:57;;;;;;;;;3.25;3.00;;;;;25.12;48.32;101395.84;5035130;28;45354;-59
2022/08/01 08:16:22;;;;;;;;;3.50;3.00;;;;;25.12;48.31;101394.97;5034418;28;45461;-57
2022/08/01 08:18:48;;;;;;;;;3.25;3.25;;;;;25.12;48.58;101397.63;5034762;28;45426;-57
2022/08/01 08:21:13;;;;;;;;;3.00;3.00;;;;;25.13;48.09;101402.84;5036700;28;45698;-57
2022/08/01 08:26:23;;;;;;;;;4.75;4.00;;;;;25.17;48.13;101392.88;5038019;28;45166;-59
2022/08/01 08:28:49;;;;;;;;;4.50;4.00;;;;;25.15;47.98;101394.78;5037878;28;47471;-57
2022/08/01 08:31:14;;;;;;;;;4.00;3.00;;;;;25.14;48.07;101393.91;5037807;28;45540;-57
2022/08/01 08:33:39;;;;;;;;;3.00;3.00;;;;;25.10;48.10;101392.44;5037469;28;45472;-56
2022/08/01 08:36:04;;;;;;;;;2.00;2.00;;;;;25.14;48.51;101398.38;5038334;28;45394;-57
2022/08/01 08:38:30;;;;;;;;;2.75;2.25;;;;;25.14;47.93;101408.97;5037290;28;55297;-56
2022/08/01 08:40:56;;;;;;;;;4.75;4.00;;;;;25.16;47.85;101396.47;5053677;28;45382;-56
2022/08/01 08:43:23;;;;;;;;;5.50;3.00;;;;;25.17;47.74;101385.75;5037588;28;45349;-56
2022/08/01 08:45:49;;;;;;;;;4.00;4.00;;;;;25.22;47.82;101376.66;5037055;28;45323;-56
2022/08/01 08:48:15;;;;;;;;;4.00;4.00;;;;;25.25;48.12;101379.06;5037356;28;46370;-56
2022/08/01 08:50:42;;;;;;;;;4.00;4.00;;;;;25.27;47.70;101378.03;5037502;28;45895;-56
2022/08/01 08:53:09;;;;;;;;;5.00;3.50;;;;;25.29;48.20;101380.56;5037956;28;45384;-56
2022/08/01 08:55:37;;;;;;;;;5.75;4.00;;;;;25.29;47.81;101373.47;5037779;28;45433;-56
2022/08/01 08:58:05;;;;;;;;;3.75;3.75;;;;;25.34;47.92;101367.00;5037445;28;45538;-56
2022/08/01 09:00:31;;;;;;;;;4.75;3.25;;;;;25.35;47.73;101374.88;5037389;28;45416;-51
2022/08/01 09:02:56;;;;;;;;;2.75;2.75;;;;;25.36;47.37;101371.22;5038188;28;45334;-57
2022/08/01 09:05:26;;;;;;;;;2.75;2.75;;;;;25.39;47.56;101372.84;5037694;28;45499;-57
2022/08/01 09:07:53;;;;;;;;;2.25;2.25;;;;;25.40;47.47;101371.91;5051494;28;45474;-54
2022/08/01 09:10:18;;;;;;;;;4.25;3.00;;;;;25.40;47.67;101372.78;5036722;28;45838;-54
2022/08/01 09:13:02;;;;;;;;;3.00;3.00;;;;;25.40;47.09;101374.56;5036233;28;45364;-56
2022/08/01 09:15:39;;;;;;;;;5.25;4.25;;;;;25.39;47.64;101380.81;5037493;28;45371;-55
2022/08/01 09:18:06;;;;;;;;;4.00;4.00;;;;;25.39;47.77;101386.13;5036976;28;46487;-54
2022/08/01 09:20:31;;;;;;;;;4.00;4.00;;;;;25.39;47.31;101386.13;5036975;28;45340;-55
2022/08/01 09:22:57;;;;;;;;;3.50;2.50;;;;;25.40;47.76;101393.13;5037679;28;45329;-52
2022/08/01 09:25:22;;;;;;;;;5.00;4.00;;;;;25.40;47.37;101394.00;5037176;28;45320;-55
2022/08/01 09:27:48;;;;;;;;;3.50;3.50;;;;;25.41;47.42;101390.41;5037118;28;46387;-56
2022/08/01 09:30:14;;;;;;;;;3.25;3.25;;;;;25.43;47.18;101391.16;5036923;28;45470;-57
2022/08/01 09:32:57;;;;;;;;;4.25;3.25;;;;;25.43;47.08;101384.97;5037151;28;45506;-56
2022/08/01 09:35:27;;;;;;;;;3.25;3.25;;;;;25.43;47.00;101396.47;5037077;28;45376;-56
2022/08/01 09:38:12;;;;;;;;;3.25;3.00;;;;;25.43;47.04;101396.47;5036730;28;46262;-56
2022/08/01 09:40:56;;;;;;;;;3.25;3.25;;;;;25.42;46.88;101391.22;5036542;28;45775;-57
2022/08/01 09:43:24;;;;;;;;;2.50;2.00;;;;;25.41;46.54;101382.44;5036822;28;45284;-55
2022/08/01 09:45:50;;;;;;;;;3.00;2.00;;;;;25.43;46.83;101385.84;5035907;28;45305;-55
2022/08/01 09:48:16;;;;;;;;;2.00;2.00;;;;;25.42;46.34;101388.56;5036663;28;46406;-54
2022/08/01 09:50:43;;;;;;;;;2.75;2.75;;;;;25.41;46.31;101392.22;5036568;28;45415;-54
2022/08/01 09:53:10;;;;;;;;;3.00;3.00;;;;;25.40;47.05;101394.00;5036852;28;45410;-53
2022/08/01 09:55:37;;;;;;;;;3.00;2.50;;;;;25.40;47.05;101403.75;5036766;28;45413;-52
2022/08/01 09:58:04;;;;;;;;;3.00;3.00;;;;;25.39;46.38;101410.84;5036463;28;46237;-54
2022/08/01 10:00:30;;;;;;;;;2.00;2.00;;;;;25.39;46.37;101392.25;5036654;28;45485;-55
2022/08/01 10:02:55;;;;;;;;;2.00;2.00;;;;;25.37;46.61;101388.84;5036735;28;45478;-56
2022/08/01 10:05:31;;;;;;;;;3.75;2.50;;;;;25.39;46.38;101391.44;5036184;28;45521;-55
2022/08/01 10:07:58;;;;;;;;;3.00;3.00;;;;;25.38;46.26;101389.72;5036358;28;47227;-55
2022/08/01 10:10:24;;;;;;;;;2.00;2.00;;;;;25.37;46.50;101401.28;5036098;28;45767;-56
2022/08/01 10:12:51;;;;;;;;;3.00;3.00;;;;;25.37;46.71;101395.97;5035342;28;45349;-56
2022/08/01 10:15:17;;;;;;;;;4.00;3.00;;;;;25.37;46.70;101399.47;5036695;28;45525;-57
2022/08/01 10:17:52;;;;;;;;;2.25;2.25;;;;;25.38;46.19;101395.03;5035963;28;45525;-58
2022/08/01 10:20:24;;;;;;;;;2.75;2.75;;;;;25.37;46.59;101394.16;5036480;28;45871;-58
2022/08/01 10:22:51;;;;;;;;;3.00;2.50;;;;;25.39;46.47;101400.22;5036401;28;45369;-57
2022/08/01 10:25:19;;;;;;;;;3.25;3.25;;;;;25.40;46.54;101398.44;5036581;28;45516;-58
2022/08/01 10:27:54;;;;;;;;;4.75;3.00;;;;;25.42;46.53;101399.19;5036201;28;46829;-58
2022/08/01 10:30:20;;;;;;;;;4.00;4.00;;;;;25.42;46.84;101402.72;5035953;28;45804;-57
2022/08/01 10:32:46;;;;;;;;;3.50;2.50;;;;;25.44;46.25;101400.81;5036367;28;45162;-58
2022/08/01 10:35:16;;;;;;;;;3.00;3.00;;;;;25.46;46.76;101395.38;5036561;28;45549;-56
2022/08/01 10:37:44;;;;;;;;;3.75;3.75;;;;;25.48;46.76;101393.47;5034991;28;45429;-58
2022/08/01 10:40:11;;;;;;;;;4.00;4.00;;;;;25.50;46.31;101388.94;5036022;28;45257;-52
2022/08/01 10:42:39;;;;;;;;;3.00;3.00;;;;;25.51;46.55;101387.97;5035403;28;45406;-56
2022/08/01 10:45:05;;;;;;;;;3.00;3.00;;;;;25.54;46.40;101393.06;5036445;28;45411;-56
2022/08/01 10:47:40;;;;;;;;;3.00;3.00;;;;;25.54;46.41;101395.72;5035904;28;46825;-54
2022/08/01 10:50:37;;;;;;;;;4.25;3.75;;;;;25.56;46.63;101396.47;5036078;28;45830;-55
2022/08/01 10:53:06;;;;;;;;;4.25;3.00;;;;;25.56;46.11;101395.63;5035707;28;45355;-57
2022/08/01 10:55:48;;;;;;;;;4.00;4.00;;;;;25.57;46.41;101400.81;5035148;28;45509;-57
2022/08/01 10:58:20;;;;;;;;;4.50;3.75;;;;;25.56;46.61;101391.16;5035791;28;46491;-55
2022/08/01 11:00:45;;;;;;;;;6.00;4.00;;;;;25.58;46.68;101391.03;5035829;28;45310;-58
2022/08/01 11:03:10;;;;;;;;;3.25;3.25;;;;;25.58;46.32;101391.03;5035786;28;45367;-53
2022/08/01 11:05:36;;;;;;;;;4.75;4.00;;;;;25.60;46.37;101386.47;5034292;28;45440;-56
2022/08/01 11:08:21;;;;;;;;;5.25;4.00;;;;;25.61;46.52;101383.75;5034838;28;45433;-55
2022/08/01 11:10:47;;;;;;;;;5.25;4.75;;;;;25.62;45.88;101388.09;5035530;28;45890;-53
2022/08/01 11:13:12;;;;;;;;;3.50;3.00;;;;;25.61;45.82;101386.41;5035728;28;45497;-56
2022/08/01 11:15:39;;;;;;;;;3.00;3.00;;;;;25.66;46.36;101393.16;5035649;28;45362;-56
2022/08/01 11:18:27;;;;;;;;;5.00;3.75;;;;;25.66;46.24;101390.50;5034954;28;45376;-56
2022/08/01 11:20:58;;;;;;;;;4.00;4.00;;;;;25.66;46.24;101385.22;5050843;28;46297;-56
2022/08/01 11:23:24;;;;;;;;;5.00;3.50;;;;;25.68;46.07;101396.56;5035453;28;45463;-56
2022/08/01 11:25:50;;;;;;;;;5.50;5.50;;;;;25.68;45.94;101383.31;5035278;28;45319;-57
2022/08/01 11:28:24;;;;;;;;;4.50;4.00;;;;;25.69;45.91;101382.34;5033998;28;45978;-57
2022/08/01 11:31:15;;;;;;;;;5.25;4.00;;;;;25.68;46.10;101385.97;5035421;28;45357;-58
2022/08/01 11:33:41;;;;;;;;;5.75;4.00;;;;;25.70;46.33;101384.06;5034676;28;45444;-58